createdAt,value
2023-01-04T00:01:14.810Z,101517.72
2023-01-04T00:04:18.986Z,101523.44
2023-01-04T00:07:24.738Z,101524.03
2023-01-04T00:10:28.578Z,101511.66
2023-01-04T00:13:33.202Z,101522.47
2023-01-04T00:16:37.414Z,101532.25
2023-01-04T00:19:41.627Z,101531.06
2023-01-04T00:22:46.167Z,101524.53
2023-01-04T00:25:50.169Z,101531.41
2023-01-04T00:28:59.642Z,101515.31
2023-01-04T00:32:03.905Z,101515.03
2023-01-04T00:35:10.005Z,101521.75
2023-01-04T00:38:14.078Z,101509.63
2023-01-04T00:41:49.333Z,101518.25
2023-01-04T00:44:41.783Z,101477.13
2023-01-04T00:47:45.562Z,101517.34
2023-01-04T00:50:50.598Z,101531.97
2023-01-04T00:53:54.482Z,101511.91
2023-01-04T00:56:59.535Z,101523.75
2023-01-04T01:00:03.484Z,101529.69
2023-01-04T01:03:08.098Z,101520.84
2023-01-04T01:06:13.603Z,101518.44
2023-01-04T01:09:18.829Z,101521.22
2023-01-04T01:12:22.728Z,101514.28
2023-01-04T01:15:26.623Z,101527.09
2023-01-04T01:18:31.387Z,101529.81
2023-01-04T01:21:35.629Z,101522.25
2023-01-04T01:24:42.134Z,101520.25
2023-01-04T01:27:45.969Z,101472.97
2023-01-04T01:30:50.037Z,101529.31
2023-01-04T01:33:56.558Z,101516.25
2023-01-04T01:37:00.468Z,101514.06
2023-01-04T01:40:05.004Z,101512.81
2023-01-04T01:43:20.535Z,101519.78
2023-01-04T01:46:24.229Z,101514.19
2023-01-04T01:49:38.123Z,101516.91
2023-01-04T01:52:42.239Z,101514.06
2023-01-04T01:55:50.389Z,101498.16
2023-01-04T01:58:56.449Z,101501.47
2023-01-04T02:02:00.512Z,101488.72
2023-01-04T02:05:04.835Z,101490.41
2023-01-04T02:08:09.978Z,101474.06
2023-01-04T02:11:13.649Z,101490.53
2023-01-04T02:14:28.507Z,101490.06
2023-01-04T02:18:07.137Z,101470.78
2023-01-04T02:21:30.475Z,101475.00
2023-01-04T02:25:03.717Z,101469.44
2023-01-04T02:28:18.901Z,101467.91
2023-01-04T02:32:07.128Z,101458.59
2023-01-04T02:35:17.046Z,101452.47
2023-01-04T02:38:29.689Z,101459.34
2023-01-04T02:41:59.419Z,101458.81
2023-01-04T02:45:06.552Z,101437.84
2023-01-04T02:48:28.997Z,101453.06
2023-01-04T02:51:35.974Z,101444.38
2023-01-04T02:54:40.420Z,101441.38
2023-01-04T02:57:59.435Z,101435.19
2023-01-04T03:01:27.779Z,101437.81
2023-01-04T03:04:50.073Z,101438.75
2023-01-04T03:08:02.165Z,101435.84
2023-01-04T03:11:28.477Z,101414.81
2023-01-04T03:14:35.493Z,101433.59
2023-01-04T03:17:47.883Z,101434.94
2023-01-04T03:20:53.482Z,101428.19
2023-01-04T03:24:19.198Z,101421.72
2023-01-04T03:27:42.129Z,101421.56
2023-01-04T03:31:18.525Z,101424.22
2023-01-04T03:34:41.314Z,101421.47
2023-01-04T03:38:17.152Z,101426.53
2023-01-04T03:41:49.316Z,101437.81
2023-01-04T03:45:31.816Z,101431.91
2023-01-04T03:48:35.952Z,101437.50
2023-01-04T03:51:40.311Z,101426.03
2023-01-04T03:54:50.976Z,101420.81
2023-01-04T03:57:55.259Z,101433.63
2023-01-04T04:01:04.236Z,101426.84
2023-01-04T04:04:26.832Z,101401.09
2023-01-04T04:07:50.376Z,101413.59
2023-01-04T04:10:56.237Z,101429.50
2023-01-04T04:14:01.587Z,101426.47
2023-01-04T04:17:07.699Z,101425.69
2023-01-04T04:20:14.239Z,101424.41
2023-01-04T04:23:18.149Z,101408.38
2023-01-04T04:26:22.565Z,101438.91
2023-01-04T04:29:26.524Z,101412.91
2023-01-04T04:32:31.220Z,101403.13
2023-01-04T04:35:35.301Z,101424.75
2023-01-04T04:38:39.377Z,101422.16
2023-01-04T04:41:43.386Z,101418.50
2023-01-04T04:44:50.295Z,101408.00
2023-01-04T04:47:54.145Z,101432.75
2023-01-04T04:50:58.031Z,101424.78
2023-01-04T04:54:02.195Z,101432.94
2023-01-04T04:57:07.830Z,101433.47
2023-01-04T05:00:12.589Z,101422.63
2023-01-04T05:03:16.711Z,101429.84
2023-01-04T05:06:20.908Z,101348.22
2023-01-04T05:09:24.784Z,101432.59
2023-01-04T05:12:46.891Z,101431.03
2023-01-04T05:15:53.342Z,101419.78
2023-01-04T05:18:57.324Z,101400.13
2023-01-04T05:22:01.115Z,101411.91
2023-01-04T05:25:05.253Z,101424.63
2023-01-04T05:28:10.046Z,101416.66
2023-01-04T05:31:15.393Z,101400.59
2023-01-04T05:34:22.336Z,101421.56
2023-01-04T05:37:26.706Z,101418.28
2023-01-04T05:40:31.180Z,101433.94
2023-01-04T05:43:35.105Z,101419.25
2023-01-04T05:46:38.872Z,101439.75
2023-01-04T05:49:42.750Z,101433.63
2023-01-04T05:52:46.746Z,101435.56
2023-01-04T05:55:50.613Z,101428.66
2023-01-04T05:58:57.613Z,101439.91
2023-01-04T06:02:01.850Z,101427.72
2023-01-04T06:05:06.520Z,101434.28
2023-01-04T06:08:10.497Z,101435.97
2023-01-04T06:11:14.248Z,101425.56
2023-01-04T06:14:18.143Z,101446.84
2023-01-04T06:17:22.110Z,101465.63
2023-01-04T06:20:26.333Z,101446.50
2023-01-04T06:23:30.646Z,101426.31
2023-01-04T06:26:34.686Z,101441.19
2023-01-04T06:29:38.641Z,101467.13
2023-01-04T06:32:42.755Z,101451.38
2023-01-04T06:35:54.363Z,101466.72
2023-01-04T06:39:03.977Z,101474.13
2023-01-04T06:42:28.179Z,101485.16
2023-01-04T06:45:32.095Z,101469.06
2023-01-04T06:48:35.831Z,101466.25
2023-01-04T06:51:40.116Z,101480.41
2023-01-04T06:54:44.154Z,101478.03
2023-01-04T06:57:48.304Z,101455.22
2023-01-04T07:00:56.474Z,101487.44
2023-01-04T07:04:00.878Z,101488.53
2023-01-04T07:07:04.856Z,101480.59
2023-01-04T07:10:09.895Z,101482.31
2023-01-04T07:13:14.388Z,101476.31
2023-01-04T07:16:18.447Z,101491.34
2023-01-04T07:19:22.289Z,101488.16
2023-01-04T07:22:26.267Z,101496.03
2023-01-04T07:25:30.085Z,101485.09
2023-01-04T07:28:52.528Z,101484.38
2023-01-04T07:31:57.243Z,101482.53
2023-01-04T07:35:01.297Z,101423.25
2023-01-04T07:38:06.914Z,101488.19
2023-01-04T07:41:11.005Z,101491.50
2023-01-04T07:44:15.388Z,101484.25
2023-01-04T07:47:19.414Z,101485.84
2023-01-04T07:50:23.240Z,101494.56
2023-01-04T07:53:27.118Z,101489.22
2023-01-04T07:56:31.121Z,101467.97
2023-01-04T07:59:35.071Z,101436.50
2023-01-04T08:02:39.433Z,101487.00
2023-01-04T08:05:44.193Z,101478.69
2023-01-04T08:08:48.833Z,101488.66
2023-01-04T08:11:52.706Z,101493.75
2023-01-04T08:14:56.548Z,101484.13
2023-01-04T08:18:02.886Z,101473.63
2023-01-04T08:21:09.335Z,101484.94
2023-01-04T08:24:16.000Z,101496.03
2023-01-04T08:27:19.843Z,101477.19
2023-01-04T08:30:23.778Z,101486.91
2023-01-04T08:33:29.543Z,101478.53
2023-01-04T08:36:35.735Z,101487.97
2023-01-04T08:39:45.345Z,101489.38
2023-01-04T08:42:52.763Z,101474.84
2023-01-04T08:45:56.694Z,101496.13
2023-01-04T08:49:00.790Z,101493.56
2023-01-04T08:52:05.145Z,101477.44
2023-01-04T08:55:13.322Z,101455.00
2023-01-04T08:58:18.534Z,101484.44
2023-01-04T09:01:22.614Z,101496.84
2023-01-04T09:04:26.907Z,101501.19
2023-01-04T09:07:34.686Z,101496.41
2023-01-04T09:10:40.336Z,101490.41
2023-01-04T09:13:44.836Z,101487.94
2023-01-04T09:16:48.728Z,101509.06
2023-01-04T09:19:53.416Z,101472.28
2023-01-04T09:23:00.300Z,101508.31
2023-01-04T09:26:15.622Z,101489.00
2023-01-04T09:29:19.940Z,101515.16
2023-01-04T09:32:25.341Z,101506.53
2023-01-04T09:35:29.497Z,101530.88
2023-01-04T09:38:35.195Z,101520.66
2023-01-04T09:42:22.205Z,101519.31
2023-01-04T09:45:28.665Z,101483.09
2023-01-04T09:48:35.167Z,101504.56
2023-01-04T09:51:42.260Z,101515.13
2023-01-04T09:54:59.098Z,101500.00
2023-01-04T09:58:19.023Z,101487.59
2023-01-04T10:01:37.498Z,101463.06
2023-01-04T10:04:45.584Z,101510.31
2023-01-04T10:07:53.302Z,101507.44
2023-01-04T10:11:23.027Z,101510.84
2023-01-04T10:14:51.274Z,101521.41
2023-01-04T10:19:28.686Z,101513.03
2023-01-04T10:21:34.341Z,101528.19
2023-01-04T10:25:00.735Z,101522.66
2023-01-04T10:28:32.645Z,101534.94
2023-01-04T10:31:46.005Z,101520.38
2023-01-04T10:34:50.547Z,101501.22
2023-01-04T10:38:11.625Z,101519.25
2023-01-04T10:41:25.328Z,101520.53
2023-01-04T10:44:42.582Z,101516.97
2023-01-04T10:48:04.267Z,101509.44
2023-01-04T10:51:10.652Z,101505.84
2023-01-04T10:54:26.362Z,101515.91
2023-01-04T10:57:36.848Z,101521.69
2023-01-04T11:00:51.549Z,101493.63
2023-01-04T11:04:04.055Z,101511.03
2023-01-04T11:07:11.885Z,101499.19
2023-01-04T11:10:26.782Z,101507.94
2023-01-04T11:13:31.927Z,101508.78
2023-01-04T11:16:36.197Z,101515.22
2023-01-04T11:19:40.869Z,101509.31
2023-01-04T11:23:14.125Z,101511.31
2023-01-04T11:26:25.522Z,101493.66
2023-01-04T11:29:36.545Z,101516.13
2023-01-04T11:33:01.581Z,101511.13
2023-01-04T11:36:05.802Z,101504.63
2023-01-04T11:39:20.747Z,101510.25
2023-01-04T11:42:25.089Z,101450.09
2023-01-04T11:45:29.931Z,101462.31
2023-01-04T11:48:35.111Z,101510.91
2023-01-04T11:51:42.079Z,101473.84
2023-01-04T11:54:46.394Z,101498.69
2023-01-04T11:58:06.758Z,101486.81
2023-01-04T12:01:25.954Z,101470.44
2023-01-04T12:04:35.198Z,101487.72
2023-01-04T12:07:39.709Z,101490.25
2023-01-04T12:10:46.757Z,101510.59
2023-01-04T12:13:50.676Z,101505.56
2023-01-04T12:17:00.958Z,101501.59
2023-01-04T12:20:18.773Z,101478.91
2023-01-04T12:23:24.359Z,101482.13
2023-01-04T12:26:30.373Z,101485.75
2023-01-04T12:29:47.015Z,101503.50
2023-01-04T12:32:51.264Z,101477.06
2023-01-04T12:36:10.440Z,101508.75
2023-01-04T12:39:17.569Z,101502.63
2023-01-04T12:42:25.470Z,101506.22
2023-01-04T12:45:29.451Z,101486.44
2023-01-04T12:48:53.904Z,101509.16
2023-01-04T12:55:42.030Z,101507.88
2023-01-04T12:59:40.263Z,101498.88
2023-01-04T13:03:09.432Z,101477.66
2023-01-04T13:06:14.757Z,101486.38
2023-01-04T13:09:25.387Z,101477.25
2023-01-04T13:12:38.875Z,101504.56
2023-01-04T13:19:57.899Z,101489.59
2023-01-04T13:23:02.501Z,101451.84
2023-01-04T13:26:52.710Z,101492.47
2023-01-04T13:29:56.870Z,101486.03
2023-01-04T13:33:28.076Z,101468.25
2023-01-04T13:36:32.776Z,101492.84
2023-01-04T13:39:52.755Z,101473.66
2023-01-04T13:43:34.936Z,101505.25
2023-01-04T13:46:43.943Z,101490.41
2023-01-04T13:49:48.543Z,101483.84
2023-01-04T13:53:05.607Z,101496.94
2023-01-04T13:56:22.869Z,101456.59
2023-01-04T13:59:32.608Z,101483.28
2023-01-04T14:02:39.805Z,101493.91
2023-01-04T14:05:51.655Z,101508.44
2023-01-04T14:09:07.884Z,101516.22
2023-01-04T14:12:20.843Z,101495.00
2023-01-04T14:15:27.040Z,101486.34
2023-01-04T14:18:32.432Z,101476.28
2023-01-04T14:21:38.513Z,101490.31
2023-01-04T14:28:25.573Z,101525.72
2023-01-04T14:31:33.400Z,101531.78
2023-01-04T14:34:37.803Z,101500.72
2023-01-04T14:37:42.106Z,101510.94
2023-01-04T14:40:47.135Z,101479.09
2023-01-04T14:43:55.317Z,101474.34
2023-01-04T14:47:01.976Z,101523.16
2023-01-04T14:50:06.717Z,101521.69
2023-01-04T14:53:19.359Z,101520.41
2023-01-04T14:56:23.309Z,101501.13
2023-01-04T14:59:27.832Z,101492.81
2023-01-04T15:02:34.694Z,101499.25
2023-01-04T15:05:39.363Z,101515.28
2023-01-04T15:08:43.206Z,101508.53
2023-01-04T15:11:47.357Z,101460.63
2023-01-04T15:14:51.338Z,101504.00
2023-01-04T15:17:55.620Z,101505.50
2023-01-04T15:20:59.393Z,101491.28
2023-01-04T15:24:04.530Z,101522.44
2023-01-04T15:27:08.560Z,101497.16
2023-01-04T15:30:14.085Z,101509.69
2023-01-04T15:33:18.525Z,101527.22
2023-01-04T15:36:24.176Z,101515.44
2023-01-04T15:39:28.092Z,101536.50
2023-01-04T15:42:50.941Z,101532.03
2023-01-04T15:45:54.996Z,101534.38
2023-01-04T15:48:59.047Z,101531.09
2023-01-04T15:52:03.830Z,101526.78
2023-01-04T15:55:08.081Z,101528.94
2023-01-04T15:58:12.037Z,101529.56
2023-01-04T16:01:17.390Z,101519.63
2023-01-04T16:04:21.803Z,101504.53
2023-01-04T16:07:28.559Z,101510.44
2023-01-04T16:10:35.065Z,101534.16
2023-01-04T16:13:39.508Z,101512.34
2023-01-04T16:16:43.751Z,101515.19
2023-01-04T16:19:48.127Z,101514.50
2023-01-04T16:22:52.929Z,101506.50
2023-01-04T16:26:16.967Z,101525.53
2023-01-04T16:29:21.756Z,101528.41
2023-01-04T16:32:26.412Z,101498.97
2023-01-04T16:35:30.419Z,101538.28
2023-01-04T16:38:38.080Z,101540.47
2023-01-04T16:41:41.982Z,101526.13
2023-01-04T16:44:47.149Z,101504.81
2023-01-04T16:47:52.111Z,101523.81
2023-01-04T16:50:56.010Z,101548.25
2023-01-04T16:54:04.065Z,101541.25
2023-01-04T16:57:08.000Z,101521.75
2023-01-04T17:00:12.484Z,101532.88
2023-01-04T17:03:17.064Z,101537.72
2023-01-04T17:06:29.898Z,101532.75
2023-01-04T17:09:33.943Z,101552.13
2023-01-04T17:12:47.453Z,101534.06
2023-01-04T17:15:51.950Z,101536.88
2023-01-04T17:18:56.940Z,101550.56
2023-01-04T17:22:01.582Z,101556.53
2023-01-04T17:25:06.269Z,101521.59
2023-01-04T17:28:10.423Z,101535.63
2023-01-04T17:31:35.850Z,101541.13
2023-01-04T17:34:40.069Z,101528.66
2023-01-04T17:37:44.563Z,101541.19
2023-01-04T17:40:48.494Z,101557.72
2023-01-04T17:43:57.055Z,101544.28
2023-01-04T17:47:01.777Z,101546.31
2023-01-04T17:50:06.173Z,101543.31
2023-01-04T17:53:10.585Z,101537.09
2023-01-04T17:56:19.552Z,101520.56
2023-01-04T17:59:23.509Z,101486.84
2023-01-04T18:02:27.863Z,101528.06
2023-01-04T18:05:39.493Z,101545.97
2023-01-04T18:08:57.152Z,101531.03
2023-01-04T18:12:01.206Z,101536.25
2023-01-04T18:15:07.166Z,101531.59
2023-01-04T18:18:11.417Z,101534.84
2023-01-04T18:21:29.878Z,101534.41
2023-01-04T18:24:37.429Z,101544.00
2023-01-04T18:27:42.416Z,101541.16
2023-01-04T18:30:46.346Z,101496.72
2023-01-04T18:33:55.429Z,101519.06
2023-01-04T18:36:59.479Z,101531.19
2023-01-04T18:40:04.798Z,101536.44
2023-01-04T18:43:09.339Z,101523.19
2023-01-04T18:46:13.218Z,101511.38
2023-01-04T18:49:18.169Z,101539.78
2023-01-04T18:52:22.193Z,101535.06
2023-01-04T18:55:26.162Z,101508.72
2023-01-04T18:58:30.615Z,101525.41
2023-01-04T19:01:35.955Z,101506.34
2023-01-04T19:04:40.321Z,101533.25
2023-01-04T19:07:44.376Z,101505.44
2023-01-04T19:10:48.641Z,101533.50
2023-01-04T19:13:54.543Z,101523.00
2023-01-04T19:16:58.517Z,101516.78
2023-01-04T19:20:03.018Z,101532.38
2023-01-04T19:23:08.230Z,101507.28
2023-01-04T19:26:12.303Z,101526.56
2023-01-04T19:29:16.317Z,101521.66
2023-01-04T19:32:21.813Z,101530.38
2023-01-04T19:35:26.180Z,101510.56
2023-01-04T19:38:29.891Z,101532.88
2023-01-04T19:41:35.317Z,101510.28
2023-01-04T19:44:39.530Z,101529.50
2023-01-04T19:47:43.518Z,101540.41
2023-01-04T19:50:47.985Z,101538.34
2023-01-04T19:53:52.656Z,101538.53
2023-01-04T19:56:56.274Z,101544.16
2023-01-04T20:00:00.555Z,101521.72
2023-01-04T20:03:05.397Z,101543.94
2023-01-04T20:06:10.463Z,101532.63
2023-01-04T20:09:15.026Z,101545.88
2023-01-04T20:12:22.158Z,101547.16
2023-01-04T20:15:26.526Z,101532.38
2023-01-04T20:18:30.534Z,101538.13
2023-01-04T20:21:34.689Z,101533.81
2023-01-04T20:24:38.884Z,101541.72
2023-01-04T20:27:42.801Z,101547.06
2023-01-04T20:30:47.607Z,101555.66
2023-01-04T20:33:51.771Z,101547.44
2023-01-04T20:36:55.555Z,101543.56
2023-01-04T20:39:59.688Z,101547.72
2023-01-04T20:43:22.406Z,101557.81
2023-01-04T20:46:32.550Z,101566.84
2023-01-04T20:49:36.484Z,101545.63
2023-01-04T20:52:41.008Z,101527.16
2023-01-04T20:55:45.233Z,101570.31
2023-01-04T20:58:50.009Z,101573.31
2023-01-04T21:01:54.022Z,101578.31
2023-01-04T21:04:57.935Z,101515.81
2023-01-04T21:08:02.201Z,101567.66
2023-01-04T21:11:07.437Z,101586.81
2023-01-04T21:14:12.940Z,101577.75
2023-01-04T21:17:16.859Z,101584.16
2023-01-04T21:20:22.340Z,101565.97
2023-01-04T21:23:28.097Z,101573.41
2023-01-04T21:26:32.288Z,101584.84
2023-01-04T21:29:36.289Z,101546.94
2023-01-04T21:32:40.152Z,101593.78
2023-01-04T21:35:44.458Z,101614.69
2023-01-04T21:38:53.290Z,101599.59
2023-01-04T21:41:57.391Z,101590.06
2023-01-04T21:45:01.273Z,101593.66
2023-01-04T21:48:06.661Z,101605.41
2023-01-04T21:51:10.907Z,101594.44
2023-01-04T21:54:15.333Z,101617.53
2023-01-04T21:57:19.416Z,101550.25
2023-01-04T22:00:23.530Z,101616.34
2023-01-04T22:03:27.826Z,101597.09
2023-01-04T22:06:33.736Z,101607.13
2023-01-04T22:09:38.108Z,101615.63
2023-01-04T22:12:42.673Z,101604.31
2023-01-04T22:15:46.946Z,101592.78
2023-01-04T22:18:51.436Z,101613.97
2023-01-04T22:21:55.473Z,101618.56
2023-01-04T22:24:59.553Z,101622.41
2023-01-04T22:28:03.833Z,101624.94
2023-01-04T22:31:10.248Z,101621.44
2023-01-04T22:34:14.790Z,101618.63
2023-01-04T22:37:19.080Z,101618.41
2023-01-04T22:40:22.925Z,101596.75
2023-01-04T22:43:27.108Z,101622.91
2023-01-04T22:46:32.383Z,101569.28
2023-01-04T22:49:36.401Z,101609.63
2023-01-04T22:52:43.551Z,101619.56
2023-01-04T22:59:14.472Z,101634.34
2023-01-04T23:02:18.560Z,101636.81
2023-01-04T23:05:23.256Z,101634.56
2023-01-04T23:08:27.230Z,101646.16
2023-01-04T23:11:33.639Z,101674.25
2023-01-04T23:14:37.960Z,101633.88
2023-01-04T23:17:42.162Z,101666.16
2023-01-04T23:20:52.781Z,101652.53
2023-01-04T23:23:56.803Z,101667.78
2023-01-04T23:27:00.926Z,101662.81
2023-01-04T23:30:05.913Z,101675.06
2023-01-04T23:33:10.048Z,101657.28
2023-01-04T23:36:17.381Z,101679.00
2023-01-04T23:39:21.377Z,101668.50
2023-01-04T23:42:25.693Z,101625.59
2023-01-04T23:45:29.911Z,101650.72
2023-01-04T23:48:33.987Z,101667.31
2023-01-04T23:51:38.349Z,101669.38
2023-01-04T23:54:42.484Z,101665.47
2023-01-04T23:57:47.057Z,101676.13
